Time;durP1;ratioP1;P1;durP2;ratioP2;P2;SDS_P1;SDS_P2;PMS_P1;PMS_P2;Temp;Humidity;BMP_temperature;BMP_pressure;BME280_temperature;BME280_humidity;BME280_pressure;Samples;Min_cycle;Max_cycle;Signal;HPM_P1;HPM_P2
2022/01/17 00:01:30;;;;;;;;;30.50;26.25;;;;;8.02;100.00;103137.81;5030959;28;45442;-87
2022/01/17 00:03:56;;;;;;;;;30.75;30.75;;;;;8.03;100.00;103137.03;5052305;28;45560;-95
2022/01/17 00:06:22;;;;;;;;;29.00;25.75;;;;;8.03;100.00;103139.63;5053560;28;45316;-95
2022/01/17 00:08:49;;;;;;;;;34.00;30.50;;;;;8.08;100.00;103145.22;5036778;28;45372;-91
2022/01/17 00:11:16;;;;;;;;;26.75;22.75;;;;;8.10;100.00;103146.22;5053437;28;45285;-93
2022/01/17 00:13:43;;;;;;;;;31.25;25.50;;;;;8.10;100.00;103145.34;5058791;28;45533;-85
2022/01/17 00:16:17;;;;;;;;;27.50;24.50;;;;;8.15;100.00;103149.28;5054077;28;45404;-89
2022/01/17 00:21:08;;;;;;;;;29.50;26.75;;;;;8.15;100.00;103138.94;5033882;28;45323;-83
2022/01/17 00:23:34;;;;;;;;;27.00;25.75;;;;;8.17;100.00;103143.47;5030513;28;45403;-85
2022/01/17 00:26:00;;;;;;;;;30.50;29.25;;;;;8.17;100.00;103133.16;5029942;28;45635;-86
2022/01/17 00:28:26;;;;;;;;;35.00;28.25;;;;;8.14;100.00;103127.69;5041569;28;45857;-85
2022/01/17 00:30:52;;;;;;;;;35.25;29.50;;;;;8.18;100.00;103136.63;5039728;28;45768;-87
2022/01/17 00:33:17;;;;;;;;;30.00;26.00;;;;;8.19;100.00;103135.84;5029487;28;45799;-81
2022/01/17 00:35:43;;;;;;;;;32.25;27.75;;;;;8.20;100.00;103136.03;5038117;28;45371;-79
2022/01/17 00:38:12;;;;;;;;;30.25;28.50;;;;;8.23;100.00;103137.03;5038751;28;45284;-79
2022/01/17 00:40:38;;;;;;;;;38.25;33.25;;;;;8.24;100.00;103134.63;5037510;28;45472;-76
2022/01/17 00:43:04;;;;;;;;;34.75;30.75;;;;;8.27;100.00;103147.78;5038228;28;45323;-76
2022/01/17 00:45:31;;;;;;;;;32.00;28.75;;;;;8.27;100.00;103142.63;5038694;28;46070;-76
2022/01/17 00:48:00;;;;;;;;;37.00;27.75;;;;;8.29;100.00;103153.09;5040196;28;45414;-80
2022/01/17 00:50:27;;;;;;;;;34.50;30.25;;;;;8.29;100.00;103148.84;5041981;28;45170;-78
2022/01/17 00:52:54;;;;;;;;;26.75;25.00;;;;;8.29;100.00;103154.00;5027662;28;45427;-86
2022/01/17 00:55:20;;;;;;;;;36.25;27.25;;;;;8.30;100.00;103153.25;5043379;28;45442;-89
2022/01/17 00:57:46;;;;;;;;;29.50;25.00;;;;;8.32;100.00;103151.72;5042508;28;45289;-91
2022/01/17 01:00:13;;;;;;;;;30.00;26.50;;;;;8.31;100.00;103147.31;5040012;28;45352;-78
2022/01/17 01:02:39;;;;;;;;;33.00;28.25;;;;;8.34;100.00;103147.59;5021843;28;45384;-76
2022/01/17 01:05:06;;;;;;;;;30.50;28.50;;;;;8.34;100.00;103145.03;5036094;28;46038;-88
2022/01/17 01:07:32;;;;;;;;;29.00;26.50;;;;;8.35;100.00;103143.34;5042237;28;46090;-84
2022/01/17 01:10:10;;;;;;;;;34.00;30.00;;;;;8.35;100.00;103140.75;5045252;28;45453;-80
2022/01/17 01:12:36;;;;;;;;;33.25;29.25;;;;;8.33;100.00;103140.63;5034768;28;45246;-77
2022/01/17 01:15:06;;;;;;;;;30.75;26.75;;;;;8.34;100.00;103146.69;5031077;28;45547;-83
2022/01/17 01:28:31;;;;;;;;;33.25;31.50;;;;;8.33;100.00;103138.03;5047975;28;45336;-94
2022/01/17 01:30:58;;;;;;;;;31.00;29.25;;;;;8.33;100.00;103139.69;5049690;28;45217;-93
2022/01/17 01:33:32;;;;;;;;;28.75;26.50;;;;;8.35;100.00;103139.09;5050415;28;45224;-94
2022/01/17 01:36:03;;;;;;;;;34.00;28.25;;;;;8.35;100.00;103138.16;5047504;28;45293;-77
2022/01/17 01:38:29;;;;;;;;;35.25;30.50;;;;;8.36;100.00;103134.81;5029127;28;45390;-87
2022/01/17 01:40:55;;;;;;;;;33.50;28.25;;;;;8.37;100.00;103142.69;5047787;28;45319;-93
2022/01/17 01:43:20;;;;;;;;;35.25;30.50;;;;;8.37;100.00;103149.56;5048256;28;45211;-95
2022/01/17 01:45:48;;;;;;;;;28.50;24.25;;;;;8.37;100.00;103150.44;5049829;28;46085;-94
2022/01/17 01:48:14;;;;;;;;;37.75;29.25;;;;;8.36;100.00;103152.91;5051669;28;45871;-95
2022/01/17 01:50:40;;;;;;;;;29.25;27.00;;;;;8.35;100.00;103152.00;5051999;28;45317;-95
2022/01/17 01:53:05;;;;;;;;;28.25;28.00;;;;;8.34;100.00;103157.00;5050179;28;45641;-94
2022/01/17 01:55:31;;;;;;;;;33.25;26.75;;;;;8.31;100.00;103157.63;5046312;28;45291;-95
2022/01/17 01:57:57;;;;;;;;;34.75;29.50;;;;;8.32;100.00;103158.53;5043720;28;44702;-95
2022/01/17 02:00:23;;;;;;;;;36.75;29.25;;;;;8.31;100.00;103167.06;5043037;28;45240;-90
2022/01/17 02:02:49;;;;;;;;;33.50;30.25;;;;;8.29;100.00;103164.31;5045817;28;44929;-93
2022/01/17 02:05:15;;;;;;;;;32.50;29.50;;;;;8.27;100.00;103160.69;5047571;28;45339;-91
2022/01/17 02:07:43;;;;;;;;;30.00;27.75;;;;;8.25;100.00;103167.41;5044038;28;45292;-96
2022/01/17 02:10:09;;;;;;;;;40.00;32.25;;;;;8.28;100.00;103166.78;5025593;28;45336;-94
2022/01/17 02:12:35;;;;;;;;;37.25;33.00;;;;;8.29;100.00;103166.00;5047086;28;45292;-89
2022/01/17 02:15:05;;;;;;;;;35.50;32.25;;;;;8.30;100.00;103160.09;5028951;28;46653;-82
2022/01/17 02:17:34;;;;;;;;;37.75;30.50;;;;;8.29;100.00;103172.06;5027431;28;45223;-90
2022/01/17 02:20:09;;;;;;;;;29.00;28.50;;;;;8.28;100.00;103162.50;5022959;28;45506;-94
2022/01/17 02:22:40;;;;;;;;;35.25;32.75;;;;;8.29;100.00;103164.31;5038654;28;45431;-87
2022/01/17 02:25:06;;;;;;;;;36.00;34.50;;;;;8.28;100.00;103152.19;5042233;28;45663;-86
2022/01/17 02:27:32;;;;;;;;;35.00;32.75;;;;;8.27;100.00;103152.94;5047835;28;45394;-92
2022/01/17 02:29:58;;;;;;;;;29.75;28.75;;;;;8.27;100.00;103155.53;5045195;28;45486;-79
2022/01/17 02:32:23;;;;;;;;;37.00;34.00;;;;;8.28;100.00;103146.13;5065457;28;45514;-90
2022/01/17 02:34:49;;;;;;;;;39.50;33.75;;;;;8.27;100.00;103144.31;5044742;28;47200;-95
2022/01/17 02:37:15;;;;;;;;;40.75;34.25;;;;;8.20;100.00;103141.19;5016972;28;45440;-92
2022/01/17 02:39:40;;;;;;;;;35.50;31.25;;;;;8.20;100.00;103146.34;5029865;28;44682;-95
2022/01/17 02:42:06;;;;;;;;;35.50;32.00;;;;;8.21;100.00;103144.66;5032078;28;45566;-94
2022/01/17 02:44:32;;;;;;;;;39.50;32.25;;;;;8.18;100.00;103146.94;5028634;28;45474;-82
2022/01/17 02:47:00;;;;;;;;;32.00;28.75;;;;;8.13;100.00;103141.38;5024693;28;45320;-77
2022/01/17 02:49:26;;;;;;;;;34.75;29.75;;;;;8.10;100.00;103142.75;5023033;28;45332;-79
2022/01/17 02:51:51;;;;;;;;;30.25;29.75;;;;;8.07;100.00;103140.81;5020480;28;45362;-76
2022/01/17 02:54:17;;;;;;;;;43.50;37.00;;;;;8.08;100.00;103142.63;5020615;28;45351;-76
2022/01/17 02:56:43;;;;;;;;;38.25;32.50;;;;;8.09;100.00;103148.69;5022473;28;45465;-77
2022/01/17 02:59:09;;;;;;;;;37.75;30.25;;;;;8.08;100.00;103142.63;5040182;28;44738;-81
2022/01/17 03:01:34;;;;;;;;;31.00;29.50;;;;;8.08;100.00;103158.09;5039203;28;45277;-87
2022/01/17 03:04:00;;;;;;;;;34.50;29.50;;;;;8.09;100.00;103151.25;5032912;28;46326;-91
2022/01/17 03:06:28;;;;;;;;;34.25;34.25;;;;;8.09;100.00;103154.75;5037517;28;45974;-84
2022/01/17 03:09:03;;;;;;;;;37.75;30.50;;;;;8.12;100.00;103157.59;5020289;28;45276;-88
2022/01/17 03:11:29;;;;;;;;;43.75;34.00;;;;;8.09;100.00;103153.84;5022409;28;45483;-84
2022/01/17 03:13:57;;;;;;;;;35.25;29.75;;;;;8.11;100.00;103165.22;5016821;28;45272;-87
2022/01/17 03:16:30;;;;;;;;;31.50;25.75;;;;;8.12;100.00;103164.44;5035929;28;45486;-84
2022/01/17 03:18:56;;;;;;;;;33.00;31.50;;;;;8.15;100.00;103175.06;5048226;28;45365;-87
2022/01/17 03:21:23;;;;;;;;;38.25;29.25;;;;;8.14;100.00;103168.97;5049601;28;45233;-91
2022/01/17 03:23:53;;;;;;;;;42.25;34.00;;;;;8.14;100.00;103160.34;5045657;28;45462;-82
2022/01/17 03:26:22;;;;;;;;;30.00;28.00;;;;;8.18;100.00;103168.50;5026740;28;45162;-87
2022/01/17 03:28:48;;;;;;;;;36.50;29.75;;;;;8.25;100.00;103182.91;5024471;28;45491;-88
2022/01/17 03:31:14;;;;;;;;;36.25;31.25;;;;;8.21;100.00;103171.34;5022561;28;45237;-88
2022/01/17 03:33:41;;;;;;;;;38.00;34.75;;;;;8.28;100.00;103188.31;5021700;28;45369;-91
2022/01/17 03:36:07;;;;;;;;;38.75;32.00;;;;;8.31;100.00;103187.72;5020569;28;45346;-85
2022/01/17 03:38:34;;;;;;;;;33.00;29.25;;;;;8.33;100.00;103192.25;5022188;28;45348;-87
2022/01/17 03:41:00;;;;;;;;;38.25;34.50;;;;;8.33;100.00;103176.75;5024706;28;45583;-80
2022/01/17 03:43:27;;;;;;;;;39.00;32.50;;;;;8.35;100.00;103180.41;5025571;28;45458;-80
2022/01/17 03:45:53;;;;;;;;;37.25;29.75;;;;;8.38;100.00;103177.19;5024296;28;45292;-87
2022/01/17 03:48:20;;;;;;;;;43.00;35.25;;;;;8.40;100.00;103191.16;5028389;28;44844;-91
2022/01/17 03:50:46;;;;;;;;;34.00;29.75;;;;;8.42;100.00;103188.69;5041212;28;45364;-95
2022/01/17 03:53:12;;;;;;;;;37.75;32.00;;;;;8.44;100.00;103192.31;5031407;28;45322;-91
2022/01/17 03:55:38;;;;;;;;;42.00;34.00;;;;;8.45;100.00;103197.63;5006710;28;46355;-95
2022/01/17 03:58:06;;;;;;;;;37.25;33.25;;;;;8.45;100.00;103195.03;5036308;28;45182;-92
2022/01/17 04:00:38;;;;;;;;;37.25;30.75;;;;;8.46;100.00;103203.72;5058067;28;45349;-95
2022/01/17 04:03:05;;;;;;;;;36.25;30.25;;;;;8.45;100.00;103209.63;5044824;28;45344;-95
2022/01/17 04:05:30;;;;;;;;;44.50;35.50;;;;;8.47;100.00;103201.28;5042648;28;45213;-91
2022/01/17 04:07:56;;;;;;;;;39.00;32.00;;;;;8.49;100.00;103204.00;5045426;28;45277;-81
2022/01/17 04:10:21;;;;;;;;;42.25;34.75;;;;;8.51;100.00;103205.97;5049833;28;45241;-80
2022/01/17 04:12:47;;;;;;;;;31.00;27.75;;;;;8.53;100.00;103203.53;5051827;28;45335;-79
2022/01/17 04:15:14;;;;;;;;;34.75;32.25;;;;;8.52;100.00;103215.56;5048833;28;45490;-88
2022/01/17 04:17:42;;;;;;;;;31.25;28.50;;;;;8.55;100.00;103214.91;5043502;28;45410;-92
2022/01/17 04:20:13;;;;;;;;;34.50;28.25;;;;;8.57;100.00;103223.72;5009307;28;45574;-83
2022/01/17 04:22:49;;;;;;;;;38.25;32.00;;;;;8.58;100.00;103228.13;5028600;28;45581;-95
2022/01/17 04:25:15;;;;;;;;;34.75;33.00;;;;;8.58;100.00;103233.28;5027126;28;45359;-90
2022/01/17 04:27:40;;;;;;;;;34.75;30.75;;;;;8.60;100.00;103230.81;5005014;28;45443;-90
2022/01/17 04:30:07;;;;;;;;;38.25;32.00;;;;;8.60;100.00;103228.25;5006463;28;45264;-88
2022/01/17 04:32:33;;;;;;;;;40.00;35.50;;;;;8.58;100.00;103211.69;5024528;28;45733;-83
2022/01/17 04:34:58;;;;;;;;;38.00;32.00;;;;;8.59;100.00;103211.81;5025708;28;45754;-86
2022/01/17 04:37:24;;;;;;;;;30.50;27.50;;;;;8.58;100.00;103212.63;5025756;28;45444;-79
2022/01/17 04:39:50;;;;;;;;;31.50;30.75;;;;;8.57;100.00;103210.81;5029856;28;45198;-86
2022/01/17 04:42:17;;;;;;;;;40.25;34.25;;;;;8.56;100.00;103216.72;5010026;28;45547;-79
2022/01/17 04:47:31;;;;;;;;;37.50;33.25;;;;;8.54;100.00;103204.41;5020592;28;45455;-83
2022/01/17 04:49:58;;;;;;;;;42.00;34.75;;;;;8.55;100.00;103211.41;5020261;28;45657;-81
2022/01/17 04:52:25;;;;;;;;;38.50;34.50;;;;;8.55;100.00;103208.81;5020379;28;47273;-84
2022/01/17 04:54:55;;;;;;;;;42.75;34.25;;;;;8.53;100.00;103211.28;5033516;28;45345;-78
2022/01/17 04:57:22;;;;;;;;;35.25;30.25;;;;;8.51;100.00;103217.97;5005002;28;45390;-78
2022/01/17 04:59:48;;;;;;;;;37.00;33.00;;;;;8.48;100.00;103221.19;5030901;28;45552;-82
2022/01/17 05:02:14;;;;;;;;;33.25;28.75;;;;;8.46;100.00;103214.03;5041259;28;45257;-81
2022/01/17 05:04:40;;;;;;;;;34.00;32.75;;;;;8.44;100.00;103212.97;5052862;28;44735;-78
2022/01/17 05:07:06;;;;;;;;;32.50;30.00;;;;;8.40;100.00;103209.22;5029773;28;45311;-77
2022/01/17 05:09:32;;;;;;;;;37.25;32.50;;;;;8.39;100.00;103221.97;5028151;28;45226;-82
2022/01/17 05:11:58;;;;;;;;;49.00;36.00;;;;;8.35;100.00;103220.78;5044446;28;45366;-82
2022/01/17 05:14:25;;;;;;;;;37.75;34.00;;;;;8.31;100.00;103224.75;5042809;28;45351;-78
2022/01/17 05:16:59;;;;;;;;;38.75;33.00;;;;;8.29;100.00;103230.53;5023199;28;45425;-88
2022/01/17 05:22:09;;;;;;;;;34.75;32.75;;;;;8.29;100.00;103244.34;5034407;28;45257;-78
2022/01/17 05:24:34;;;;;;;;;42.50;33.00;;;;;8.29;100.00;103239.19;5045302;28;45406;-78
2022/01/17 05:27:00;;;;;;;;;40.75;32.50;;;;;8.31;100.00;103240.22;5026147;28;45240;-83
2022/01/17 05:29:25;;;;;;;;;41.75;34.75;;;;;8.28;100.00;103232.19;5028512;28;45493;-90
2022/01/17 05:31:51;;;;;;;;;43.00;33.50;;;;;8.28;100.00;103237.34;5031707;28;45328;-85
2022/01/17 05:34:17;;;;;;;;;39.00;33.00;;;;;8.27;100.00;103242.38;5031559;28;45315;-88
2022/01/17 05:36:42;;;;;;;;;36.25;33.00;;;;;8.24;100.00;103243.00;5011386;28;45329;-88
2022/01/17 05:39:08;;;;;;;;;36.25;29.50;;;;;8.23;100.00;103245.44;5027772;28;45549;-89
2022/01/17 05:41:34;;;;;;;;;37.75;34.75;;;;;8.20;100.00;103249.56;5025626;28;46272;-88
2022/01/17 05:44:00;;;;;;;;;36.75;30.50;;;;;8.17;100.00;103243.19;5023571;28;45214;-90
2022/01/17 05:46:25;;;;;;;;;35.75;32.00;;;;;8.13;100.00;103252.31;5042085;28;45543;-88
2022/01/17 05:48:51;;;;;;;;;39.25;33.00;;;;;8.11;100.00;103259.00;5044501;28;45541;-89
2022/01/17 05:51:16;;;;;;;;;37.75;30.25;;;;;8.06;100.00;103257.66;5043168;28;46252;-85
2022/01/17 05:53:42;;;;;;;;;33.00;31.25;;;;;8.05;100.00;103267.06;5026944;28;45332;-90
2022/01/17 05:56:08;;;;;;;;;33.75;32.75;;;;;8.01;100.00;103264.97;5041342;28;45374;-87
2022/01/17 05:58:33;;;;;;;;;34.25;34.25;;;;;7.96;100.00;103253.28;5024220;28;45324;-92
2022/01/17 06:00:59;;;;;;;;;36.00;31.00;;;;;7.96;100.00;103258.47;5010260;28;47991;-87
2022/01/17 06:03:25;;;;;;;;;33.25;27.25;;;;;7.94;100.00;103254.81;5028320;28;45250;-88
2022/01/17 06:05:52;;;;;;;;;36.25;30.50;;;;;7.91;100.00;103254.56;5026574;28;45332;-86
2022/01/17 06:08:18;;;;;;;;;40.00;31.25;;;;;7.92;100.00;103252.88;5025744;28;45692;-92
2022/01/17 06:10:43;;;;;;;;;38.00;32.50;;;;;7.90;100.00;103245.00;5033689;28;45334;-83
2022/01/17 06:13:09;;;;;;;;;40.50;32.75;;;;;7.90;100.00;103257.88;5047395;28;45397;-88
2022/01/17 06:15:35;;;;;;;;;35.50;30.50;;;;;7.87;100.00;103249.84;5049499;28;45209;-84
2022/01/17 06:18:00;;;;;;;;;37.00;31.75;;;;;7.86;100.00;103253.19;5050194;28;45232;-83
2022/01/17 06:20:26;;;;;;;;;33.25;33.25;;;;;7.86;100.00;103266.09;5054074;28;45285;-81
2022/01/17 06:22:52;;;;;;;;;33.75;30.75;;;;;7.83;100.00;103268.41;5055906;28;45289;-77
2022/01/17 06:25:17;;;;;;;;;34.75;30.25;;;;;7.82;100.00;103269.16;5057507;28;44715;-81
2022/01/17 06:27:43;;;;;;;;;41.00;33.25;;;;;7.79;100.00;103266.28;5052012;28;45582;-79
2022/01/17 06:30:09;;;;;;;;;38.00;32.25;;;;;7.77;100.00;103279.03;5056627;28;45310;-77
2022/01/17 06:32:35;;;;;;;;;33.75;31.50;;;;;7.76;100.00;103295.25;5043706;28;45256;-82
2022/01/17 06:35:03;;;;;;;;;34.25;32.25;;;;;7.73;100.00;103301.00;5041726;28;44873;-89
2022/01/17 06:37:29;;;;;;;;;36.50;32.75;;;;;7.75;100.00;103301.19;5023619;28;45436;-87
2022/01/17 06:39:56;;;;;;;;;42.00;33.25;;;;;7.75;100.00;103306.34;5029997;28;45240;-94
2022/01/17 06:42:22;;;;;;;;;34.50;30.50;;;;;7.75;100.00;103314.97;5031997;28;45300;-91
2022/01/17 06:44:49;;;;;;;;;37.50;33.50;;;;;7.74;100.00;103322.56;5019293;28;45376;-91
2022/01/17 06:47:15;;;;;;;;;38.25;34.75;;;;;7.75;100.00;103326.97;5016486;28;45316;-85
2022/01/17 06:49:40;;;;;;;;;39.75;34.75;;;;;7.74;100.00;103335.47;5040505;28;46094;-80
2022/01/17 06:52:06;;;;;;;;;42.50;37.00;;;;;7.73;100.00;103339.69;5031452;28;45641;-80
2022/01/17 06:54:32;;;;;;;;;39.50;34.75;;;;;7.73;100.00;103342.25;5027472;28;45520;-85
2022/01/17 06:56:58;;;;;;;;;39.00;35.00;;;;;7.72;100.00;103321.50;5029454;28;45898;-79
2022/01/17 06:59:24;;;;;;;;;35.50;33.25;;;;;7.70;100.00;103312.69;5031544;28;46525;-85
2022/01/17 07:01:51;;;;;;;;;40.50;32.25;;;;;7.71;100.00;103314.53;5030400;28;45435;-87
2022/01/17 07:04:16;;;;;;;;;36.00;30.25;;;;;7.73;100.00;103321.63;5030696;28;45404;-85
2022/01/17 07:06:42;;;;;;;;;42.50;35.25;;;;;7.74;100.00;103325.13;5030020;28;45319;-80
2022/01/17 07:09:15;;;;;;;;;42.25;34.00;;;;;7.72;100.00;103319.81;5036458;28;45445;-79
2022/01/17 07:11:41;;;;;;;;;37.00;34.75;;;;;7.70;100.00;103313.63;5034466;28;45309;-85
2022/01/17 07:14:09;;;;;;;;;45.50;35.00;;;;;7.69;100.00;103346.97;5039107;28;45422;-82
2022/01/17 07:16:36;;;;;;;;;44.50;37.75;;;;;7.67;100.00;103346.84;5038223;28;45303;-78
2022/01/17 07:19:02;;;;;;;;;38.50;33.75;;;;;7.64;100.00;103362.00;5038391;28;45528;-78
2022/01/17 07:21:28;;;;;;;;;42.25;35.00;;;;;7.63;100.00;103388.53;5014521;28;45984;-77
2022/01/17 07:23:54;;;;;;;;;45.75;37.25;;;;;7.62;100.00;103381.56;5033080;28;45550;-79
2022/01/17 07:26:21;;;;;;;;;39.25;34.25;;;;;7.58;100.00;103384.63;5016392;28;45405;-82
2022/01/17 07:28:47;;;;;;;;;34.00;34.00;;;;;7.57;100.00;103383.69;5021198;28;45338;-83
2022/01/17 07:31:15;;;;;;;;;32.75;26.25;;;;;7.60;100.00;103362.47;5023324;28;45469;-86
2022/01/17 07:33:42;;;;;;;;;37.00;35.50;;;;;7.56;100.00;103358.66;5034601;28;45358;-91
2022/01/17 07:36:07;;;;;;;;;47.00;36.50;;;;;7.58;100.00;103351.09;5034975;28;46003;-84
2022/01/17 07:38:37;;;;;;;;;35.00;32.75;;;;;7.52;100.00;103353.06;5019871;28;45636;-86
2022/01/17 07:41:03;;;;;;;;;46.50;38.00;;;;;7.57;100.00;103362.16;5010443;28;45569;-83
2022/01/17 07:43:29;;;;;;;;;44.00;36.25;;;;;7.54;100.00;103344.75;5034341;28;45426;-83
2022/01/17 07:46:04;;;;;;;;;45.75;37.75;;;;;7.55;100.00;103354.28;5027549;28;45337;-81
2022/01/17 07:51:14;;;;;;;;;47.50;39.00;;;;;7.51;100.00;103349.59;5036166;28;45429;-79
2022/01/17 07:53:39;;;;;;;;;42.00;38.00;;;;;7.48;100.00;103358.69;5033815;28;45402;-78
2022/01/17 07:56:05;;;;;;;;;49.00;38.00;;;;;7.46;100.00;103373.09;5039764;28;45350;-82
2022/01/17 07:58:31;;;;;;;;;42.75;34.00;;;;;7.44;100.00;103371.25;5027288;28;45359;-83
2022/01/17 08:00:56;;;;;;;;;43.75;35.00;;;;;7.40;100.00;103384.59;5030655;28;45525;-75
2022/01/17 08:03:22;;;;;;;;;36.75;34.50;;;;;7.39;100.00;103376.72;5026916;28;45490;-76
2022/01/17 08:05:48;;;;;;;;;41.00;32.25;;;;;7.38;100.00;103373.25;5032892;28;45964;-77
2022/01/17 08:08:13;;;;;;;;;43.75;38.50;;;;;7.38;100.00;103372.31;5033160;28;45934;-78
2022/01/17 08:10:39;;;;;;;;;39.75;32.50;;;;;7.39;100.00;103375.06;5034661;28;45324;-78
2022/01/17 08:13:05;;;;;;;;;43.50;35.25;;;;;7.40;100.00;103382.00;5033432;28;45407;-78
2022/01/17 08:15:31;;;;;;;;;41.25;36.00;;;;;7.41;100.00;103380.38;5028620;28;45457;-80
2022/01/17 08:17:57;;;;;;;;;38.75;35.25;;;;;7.43;100.00;103371.13;5026959;28;45533;-75
2022/01/17 08:20:23;;;;;;;;;44.25;36.75;;;;;7.44;100.00;103389.31;5033696;28;45434;-76
2022/01/17 08:22:49;;;;;;;;;41.50;35.00;;;;;7.47;100.00;103392.94;5036134;28;45364;-76
2022/01/17 08:25:16;;;;;;;;;33.00;22.75;;;;;7.47;100.00;103393.84;5027562;28;45471;-77
2022/01/17 08:27:42;;;;;;;;;32.50;26.25;;;;;7.49;100.00;103402.66;5025252;28;46166;-75
2022/01/17 08:30:09;;;;;;;;;33.75;27.50;;;;;7.51;100.00;103418.25;5029496;28;46030;-77
2022/01/17 08:32:35;;;;;;;;;40.00;34.50;;;;;7.55;100.00;103402.34;5025825;28;45252;-77
2022/01/17 08:35:01;;;;;;;;;41.00;34.00;;;;;7.57;100.00;103396.56;4999298;28;45682;-77
2022/01/17 08:37:30;;;;;;;;;41.00;33.00;;;;;7.59;100.00;103397.66;5030817;28;45320;-77
2022/01/17 08:39:57;;;;;;;;;33.25;32.25;;;;;7.61;100.00;103402.97;5025604;28;45927;-77
2022/01/17 08:42:22;;;;;;;;;43.25;31.50;;;;;7.64;100.00;103416.16;5031419;28;45331;-77
2022/01/17 08:44:51;;;;;;;;;41.50;34.50;;;;;7.64;100.00;103418.72;5016179;28;45520;-77
2022/01/17 08:47:18;;;;;;;;;35.00;30.50;;;;;7.67;100.00;103421.63;5021187;28;45441;-77
2022/01/17 08:49:44;;;;;;;;;42.75;36.75;;;;;7.77;100.00;103417.34;5007231;28;45971;-77
2022/01/17 08:52:15;;;;;;;;;45.50;37.75;;;;;7.85;100.00;103416.44;5047625;28;45495;-79
2022/01/17 08:54:41;;;;;;;;;42.25;32.75;;;;;7.94;100.00;103417.34;5036341;28;45409;-77
2022/01/17 08:57:07;;;;;;;;;39.50;35.50;;;;;8.00;100.00;103423.09;5030813;28;47704;-77
2022/01/17 08:59:34;;;;;;;;;33.00;28.75;;;;;8.06;100.00;103418.53;5014577;28;45461;-82
2022/01/17 09:02:00;;;;;;;;;36.00;30.75;;;;;8.11;100.00;103412.91;5030443;28;45508;-77
2022/01/17 09:04:26;;;;;;;;;39.25;32.75;;;;;8.17;100.00;103418.66;5029756;28;45869;-77
2022/01/17 09:06:52;;;;;;;;;34.25;29.00;;;;;8.22;100.00;103409.72;5033643;28;45410;-76
2022/01/17 09:09:17;;;;;;;;;36.25;31.00;;;;;8.29;100.00;103429.28;5035915;28;45985;-75
2022/01/17 09:11:44;;;;;;;;;38.50;35.00;;;;;8.33;100.00;103428.78;5038029;28;45418;-76
2022/01/17 09:14:09;;;;;;;;;53.25;39.75;;;;;8.39;100.00;103429.41;5019494;28;45459;-76
2022/01/17 09:16:36;;;;;;;;;36.50;32.25;;;;;8.43;100.00;103448.66;5022600;28;45532;-76
2022/01/17 09:19:02;;;;;;;;;41.50;32.50;;;;;8.44;100.00;103450.50;5025862;28;45252;-76
2022/01/17 09:21:28;;;;;;;;;35.50;33.00;;;;;8.48;100.00;103450.97;5035174;28;45222;-77
2022/01/17 09:23:58;;;;;;;;;39.00;34.50;;;;;8.51;100.00;103461.59;5037215;28;45417;-78
2022/01/17 09:26:27;;;;;;;;;41.00;35.25;;;;;8.55;100.00;103451.53;5035542;28;45347;-79
2022/01/17 09:28:54;;;;;;;;;37.75;35.75;;;;;8.57;100.00;103465.50;5035643;28;45786;-76
2022/01/17 09:31:20;;;;;;;;;20.75;13.00;;;;;8.60;100.00;103456.38;5035748;28;45383;-76
2022/01/17 09:33:46;;;;;;;;;35.50;31.75;;;;;8.65;100.00;103467.16;5035506;28;45316;-78
2022/01/17 09:36:12;;;;;;;;;30.75;27.50;;;;;8.67;100.00;103466.56;5017454;28;46613;-79
2022/01/17 09:38:38;;;;;;;;;31.50;27.75;;;;;8.69;100.00;103489.03;5035641;28;46069;-78
2022/01/17 09:41:04;;;;;;;;;38.25;31.50;;;;;8.70;100.00;103484.00;5036028;28;45396;-78
2022/01/17 09:43:30;;;;;;;;;30.00;26.25;;;;;8.71;100.00;103490.06;5017790;28;45511;-79
2022/01/17 09:45:57;;;;;;;;;39.75;34.25;;;;;8.71;100.00;103480.66;5021140;28;46325;-77
2022/01/17 09:48:33;;;;;;;;;39.00;31.50;;;;;8.73;100.00;103480.81;5036846;28;45835;-77
2022/01/17 09:51:05;;;;;;;;;41.50;31.25;;;;;8.75;100.00;103469.84;5033685;28;45446;-77
2022/01/17 09:53:38;;;;;;;;;33.00;29.75;;;;;8.73;100.00;103466.22;5035575;28;45569;-77
2022/01/17 09:56:07;;;;;;;;;31.25;30.00;;;;;8.77;100.00;103488.09;5035731;28;45539;-78
2022/01/17 09:58:35;;;;;;;;;39.75;33.75;;;;;8.79;100.00;103484.88;5015922;28;45726;-76
2022/01/17 10:01:03;;;;;;;;;32.00;25.75;;;;;8.86;100.00;103496.72;5035126;28;45387;-75
2022/01/17 10:03:30;;;;;;;;;46.50;37.00;;;;;8.88;100.00;103502.94;5035080;28;45597;-75
2022/01/17 10:05:55;;;;;;;;;34.75;30.00;;;;;8.92;100.00;103512.78;5023400;28;47145;-76
2022/01/17 10:08:22;;;;;;;;;38.50;33.00;;;;;8.97;100.00;103508.06;5032695;28;45368;-74
2022/01/17 10:11:00;;;;;;;;;32.50;32.50;;;;;8.98;100.00;103505.63;5018460;28;45329;-76
2022/01/17 10:13:31;;;;;;;;;41.50;34.50;;;;;9.02;100.00;103517.16;5016020;28;45626;-77
2022/01/17 10:16:19;;;;;;;;;35.00;32.75;;;;;9.07;100.00;103509.84;5015725;28;45391;-77
2022/01/17 10:18:54;;;;;;;;;38.50;33.75;;;;;9.11;100.00;103509.38;5017365;28;45312;-87
2022/01/17 10:21:44;;;;;;;;;42.00;33.75;;;;;9.12;100.00;103517.28;5024025;28;45264;-91
2022/01/17 10:24:35;;;;;;;;;45.75;37.75;;;;;9.14;100.00;103507.06;5020690;28;45217;-85
2022/01/17 10:27:22;;;;;;;;;37.50;33.50;;;;;9.11;100.00;103506.81;5019061;28;46252;-93
2022/01/17 10:35:31;;;;;;;;;35.25;31.75;;;;;9.08;100.00;103506.50;5017609;28;45380;-90
2022/01/17 10:38:14;;;;;;;;;50.00;37.50;;;;;9.09;100.00;103518.66;5017377;28;45498;-86
2022/01/17 10:40:42;;;;;;;;;39.75;31.00;;;;;9.09;100.00;103516.09;5033762;28;45680;-89
2022/01/17 10:43:19;;;;;;;;;39.00;32.75;;;;;9.10;100.00;103533.41;5036722;28;46456;-82
2022/01/17 10:45:46;;;;;;;;;42.50;35.50;;;;;9.12;100.00;103540.53;5017488;28;45301;-83
2022/01/17 10:48:12;;;;;;;;;42.00;36.00;;;;;9.08;100.00;103516.84;5035265;28;45386;-80
2022/01/17 10:50:41;;;;;;;;;40.75;33.75;;;;;9.10;100.00;103507.56;5017550;28;45387;-83
2022/01/17 10:53:09;;;;;;;;;34.25;31.25;;;;;9.15;100.00;103516.66;5018100;28;45356;-86
2022/01/17 10:55:38;;;;;;;;;42.75;36.50;;;;;9.16;100.00;103492.63;5046549;28;45456;-84
2022/01/17 10:58:15;;;;;;;;;46.00;35.75;;;;;9.18;100.00;103473.00;5046443;28;45263;-82
2022/01/17 11:00:50;;;;;;;;;25.75;18.00;;;;;9.20;100.00;103470.53;5040668;28;45502;-84
2022/01/17 11:03:26;;;;;;;;;37.25;32.75;;;;;9.23;100.00;103465.66;5040353;28;45439;-83
2022/01/17 11:05:54;;;;;;;;;47.50;39.50;;;;;9.30;100.00;103473.22;5041595;28;45311;-86
2022/01/17 11:08:24;;;;;;;;;47.75;37.50;;;;;9.38;100.00;103481.69;5031492;28;47290;-86
2022/01/17 11:10:53;;;;;;;;;63.00;50.25;;;;;9.41;100.00;103480.31;5040215;28;45760;-84
2022/01/17 11:13:21;;;;;;;;;39.50;31.25;;;;;9.45;100.00;103482.41;5041575;28;45393;-83
2022/01/17 11:15:52;;;;;;;;;39.50;32.00;;;;;9.50;100.00;103481.94;5044152;28;45330;-80
2022/01/17 11:18:22;;;;;;;;;39.25;32.00;;;;;9.51;100.00;103489.84;5024146;28;45309;-85
2022/01/17 11:20:51;;;;;;;;;39.50;28.50;;;;;9.53;100.00;103487.38;5046596;28;45359;-83
2022/01/17 11:23:20;;;;;;;;;38.75;35.00;;;;;9.53;100.00;103488.31;5050158;28;45390;-84
2022/01/17 11:25:51;;;;;;;;;35.75;33.75;;;;;9.49;100.00;103478.44;5022769;28;45312;-81
2022/01/17 11:28:17;;;;;;;;;41.00;35.50;;;;;9.46;100.00;103478.13;5038233;28;45287;-82
2022/01/17 11:30:44;;;;;;;;;37.50;33.50;;;;;9.45;100.00;103474.66;5035957;28;45359;-78
2022/01/17 11:33:11;;;;;;;;;37.50;31.00;;;;;9.43;100.00;103468.44;5037520;28;45439;-81
2022/01/17 11:35:42;;;;;;;;;38.75;31.50;;;;;9.48;100.00;103460.19;5025196;28;45658;-80
2022/01/17 11:38:14;;;;;;;;;38.25;34.00;;;;;9.52;100.00;103467.44;5026510;28;45493;-87